Time;durP1;ratioP1;P1;durP2;ratioP2;P2;SDS_P1;SDS_P2;PMS_P1;PMS_P2;Temp;Humidity;BMP_temperature;BMP_pressure;BME280_temperature;BME280_humidity;BME280_pressure;Samples;Min_cycle;Max_cycle;Signal;HPM_P1;HPM_P2
2021/09/11 00:01:26;;;;;;;88.00;35.20;;;;;;;11.87;76.42;99816.95;115496;1200;138949;-64
2021/09/11 00:03:54;;;;;;;89.20;35.80;;;;;;;11.87;76.33;99815.63;115628;1203;22775;-64
2021/09/11 00:06:22;;;;;;;77.90;35.60;;;;;;;11.85;76.16;99818.61;115648;1204;22352;-65
2021/09/11 00:08:51;;;;;;;89.20;36.60;;;;;;;11.82;76.15;99815.05;115480;1199;138017;-65
2021/09/11 00:11:19;;;;;;;89.50;38.80;;;;;;;11.79;76.33;99819.00;115534;1204;22248;-64
2021/09/11 00:13:47;;;;;;;91.40;37.00;;;;;;;11.76;76.29;99820.05;115474;1199;137712;-65
2021/09/11 00:16:16;;;;;;;101.10;39.60;;;;;;;11.74;76.23;99821.27;115620;1204;22383;-64
2021/09/11 00:19:01;;;;;;;86.90;37.80;;;;;;;11.71;76.42;99820.90;115503;1199;139519;-65
2021/09/11 00:21:30;;;;;;;90.90;38.30;;;;;;;11.69;76.52;99820.79;115632;1197;22335;-65
2021/09/11 00:23:58;;;;;;;89.60;37.40;;;;;;;11.67;76.44;99820.17;115610;1210;22423;-66
2021/09/11 00:26:26;;;;;;;90.50;36.30;;;;;;;11.66;76.63;99823.83;115592;1199;138655;-65
2021/09/11 00:28:54;;;;;;;88.50;37.60;;;;;;;11.63;76.76;99823.14;115614;1207;22320;-64
2021/09/11 00:31:22;;;;;;;89.10;34.70;;;;;;;11.63;77.10;99820.68;115631;1201;138607;-64
2021/09/11 00:34:31;;;;;;;89.40;38.70;;;;;;;11.65;76.87;99817.42;109911;1220;544837;-64
2021/09/11 00:36:59;;;;;;;77.70;38.50;;;;;;;11.61;76.70;99820.94;111019;1211;137383;-63
2021/09/11 00:39:27;;;;;;;79.50;38.50;;;;;;;11.58;77.01;99821.65;111132;1210;25195;-64
2021/09/11 00:41:56;;;;;;;77.50;36.70;;;;;;;11.57;77.05;99820.71;110762;1210;24165;-64
2021/09/11 00:44:25;;;;;;;81.80;37.50;;;;;;;11.57;77.37;99824.20;115017;1206;137358;-64
2021/09/11 00:46:53;;;;;;;80.70;38.70;;;;;;;11.55;77.07;99821.24;115208;1210;22288;-64
2021/09/11 00:49:21;;;;;;;76.50;38.20;;;;;;;11.53;77.08;99822.17;115023;1206;137839;-64
2021/09/11 00:51:51;;;;;;;76.10;36.40;;;;;;;11.52;77.29;99817.84;115202;1210;22414;-64
2021/09/11 00:54:19;;;;;;;64.10;34.90;;;;;;;11.52;77.44;99821.56;115244;1210;22356;-65
2021/09/11 00:56:49;;;;;;;72.70;37.40;;;;;;;11.52;77.11;99818.55;115125;1205;137319;-65
2021/09/11 00:59:18;;;;;;;74.90;36.70;;;;;;;11.51;77.25;99819.58;115357;1211;22283;-65
2021/09/11 01:01:46;;;;;;;74.50;37.00;;;;;;;11.50;77.27;99821.85;115143;1207;138284;-65
2021/09/11 01:04:31;;;;;;;75.50;36.50;;;;;;;11.49;77.42;99820.48;115214;1216;22321;-65
2021/09/11 01:07:00;;;;;;;67.70;33.90;;;;;;;11.49;77.28;99820.10;115229;1205;138511;-65
2021/09/11 01:09:28;;;;;;;74.00;36.70;;;;;;;11.49;77.38;99819.33;115254;1216;22268;-66
2021/09/11 01:12:05;;;;;;;72.90;36.70;;;;;;;11.49;77.23;99819.55;115212;1210;22335;-65
2021/09/11 01:14:33;;;;;;;69.90;34.70;;;;;;;11.49;77.43;99816.34;115134;1208;138935;-66
2021/09/11 01:17:01;;;;;;;70.60;35.00;;;;;;;11.49;77.37;99813.72;112186;1205;23423;-65
2021/09/11 01:19:29;;;;;;;63.30;35.20;;;;;;;11.48;77.23;99811.14;115282;1204;138568;-66
2021/09/11 01:21:57;;;;;;;71.80;34.90;;;;;;;11.47;77.24;99813.85;115444;1205;23429;-67
2021/09/11 01:24:25;;;;;;;85.50;36.20;;;;;;;11.45;77.14;99811.52;115452;1205;22349;-67
2021/09/11 01:26:53;;;;;;;69.80;35.70;;;;;;;11.44;77.16;99808.67;115405;1202;137309;-67
2021/09/11 01:29:21;;;;;;;70.50;36.80;;;;;;;11.43;77.28;99805.62;115374;1206;22997;-67
2021/09/11 01:31:49;;;;;;;73.60;34.00;;;;;;;11.44;77.64;99804.80;115340;1204;138717;-65
2021/09/11 01:34:18;;;;;;;70.90;35.90;;;;;;;11.42;77.51;99798.19;115488;1204;22356;-65
2021/09/11 01:36:56;;;;;;;63.50;35.00;;;;;;;11.44;77.35;99801.20;115330;1202;138873;-65
2021/09/11 01:39:24;;;;;;;70.40;35.10;;;;;;;11.43;77.12;99798.46;115454;1205;22332;-65
2021/09/11 01:41:52;;;;;;;66.30;34.90;;;;;;;11.42;77.26;99800.80;115388;1206;22255;-65
2021/09/11 01:44:20;;;;;;;68.10;36.90;;;;;;;11.41;77.28;99801.54;115304;1205;138671;-65
2021/09/11 01:46:49;;;;;;;58.80;34.10;;;;;;;11.40;77.15;99802.10;112666;1205;25151;-65
2021/09/11 01:49:17;;;;;;;69.60;35.50;;;;;;;11.39;77.23;99798.61;115333;1201;139302;-65
2021/09/11 01:51:55;;;;;;;67.20;36.90;;;;;;;11.38;77.33;99796.52;115443;1212;22375;-66
2021/09/11 01:54:24;;;;;;;66.80;36.90;;;;;;;11.37;77.16;99796.13;115487;1205;22226;-66
2021/09/11 01:56:52;;;;;;;60.20;36.20;;;;;;;11.36;77.50;99793.77;115298;1201;138083;-66
2021/09/11 01:59:19;;;;;;;64.60;36.30;;;;;;;11.35;77.28;99795.98;115440;1207;22365;-66
2021/09/11 02:01:48;;;;;;;66.60;34.70;;;;;;;11.33;77.01;99799.02;115334;1202;137673;-66
2021/09/11 02:04:16;;;;;;;58.00;34.20;;;;;;;11.29;77.29;99794.71;115406;1208;22234;-66
2021/09/11 02:07:04;;;;;;;62.00;33.70;;;;;;;11.25;77.55;99792.27;115350;1202;138242;-66
2021/09/11 02:09:35;;;;;;;62.40;34.50;;;;;;;11.24;77.47;99799.20;115413;1206;22268;-66
2021/09/11 02:12:19;;;;;;;60.20;33.20;;;;;;;11.22;77.72;99797.92;115353;1213;22152;-65
2021/09/11 02:14:47;;;;;;;57.40;32.50;;;;;;;11.22;77.69;99798.73;115318;1201;137476;-66
2021/09/11 02:17:16;;;;;;;59.40;31.50;;;;;;;11.20;77.81;99796.97;115432;1208;22415;-65
2021/09/11 02:19:44;;;;;;;60.90;33.00;;;;;;;11.21;77.81;99800.70;115291;1201;137934;-65
2021/09/11 02:22:12;;;;;;;63.50;32.10;;;;;;;11.19;77.93;99798.15;115421;1206;23106;-65
2021/09/11 02:25:00;;;;;;;;;;;;;;;11.18;78.10;99800.71;115318;1201;138506;-65
2021/09/11 02:27:29;;;;;;;52.20;30.80;;;;;;;11.18;78.12;99799.94;115475;1213;22308;-65
2021/09/11 02:29:57;;;;;;;59.90;30.70;;;;;;;11.17;78.11;99799.48;115414;1208;22323;-66
2021/09/11 02:32:25;;;;;;;48.80;31.50;;;;;;;11.16;78.20;99802.58;115351;1202;138012;-65
2021/09/11 02:34:54;;;;;;;58.30;32.40;;;;;;;11.17;78.18;99802.98;115431;1208;23409;-65
2021/09/11 02:37:22;;;;;;;61.80;29.80;;;;;;;11.17;78.18;99800.80;115264;1201;138722;-65
2021/09/11 02:39:49;;;;;;;51.90;30.00;;;;;;;11.16;78.07;99801.98;115443;1208;22302;-65
2021/09/11 02:42:18;;;;;;;54.40;31.80;;;;;;;11.16;77.78;99802.25;115443;1209;22392;-65
2021/09/11 02:44:46;;;;;;;51.90;27.70;;;;;;;11.16;77.72;99799.20;115311;1202;137616;-66
2021/09/11 02:47:14;;;;;;;63.80;32.00;;;;;;;11.14;77.76;99804.85;115482;1208;22364;-66
2021/09/11 02:49:42;;;;;;;52.40;29.90;;;;;;;11.13;77.87;99796.11;115322;1202;137929;-66
2021/09/11 02:52:10;;;;;;;54.20;30.50;;;;;;;11.13;77.78;99795.23;115436;1206;22410;-66
2021/09/11 02:54:38;;;;;;;59.90;31.10;;;;;;;11.12;77.99;99795.77;115300;1201;138820;-66
2021/09/11 02:57:06;;;;;;;65.50;31.80;;;;;;;11.11;77.98;99796.31;112120;1208;24021;-66
2021/09/11 02:59:34;;;;;;;56.20;30.20;;;;;;;11.10;78.00;99799.27;111360;1205;22444;-66
2021/09/11 03:02:03;;;;;;;58.90;31.90;;;;;;;11.12;78.24;99805.31;111190;1201;137845;-65
2021/09/11 03:04:31;;;;;;;59.90;31.60;;;;;;;11.12;78.07;99801.02;115405;1208;22125;-66
2021/09/11 03:07:19;;;;;;;50.50;29.90;;;;;;;11.10;77.88;99800.50;115318;1201;138174;-65
2021/09/11 03:09:47;;;;;;;66.40;31.00;;;;;;;11.10;77.86;99799.26;115408;1208;22238;-65
2021/09/11 03:12:15;;;;;;;59.90;31.90;;;;;;;11.09;77.83;99800.83;115433;1209;22314;-65
2021/09/11 03:14:44;;;;;;;61.10;30.60;;;;;;;11.09;78.12;99799.67;115346;1203;139403;-65
2021/09/11 03:17:12;;;;;;;60.80;31.10;;;;;;;11.08;78.12;99800.60;115409;1205;23156;-65
2021/09/11 03:19:42;;;;;;;63.80;32.10;;;;;;;11.08;78.08;99799.77;115310;1201;137840;-65
2021/09/11 03:22:10;;;;;;;64.10;33.00;;;;;;;11.07;78.06;99801.02;115410;1208;22166;-64
2021/09/11 03:24:38;;;;;;;53.70;31.60;;;;;;;11.07;78.11;99800.86;115221;1201;139104;-65
2021/09/11 03:27:06;;;;;;;68.70;32.60;;;;;;;11.08;78.02;99805.83;115364;1208;22395;-65
2021/09/11 03:29:36;;;;;;;63.10;32.30;;;;;;;11.06;78.20;99805.02;115396;1213;22389;-66
2021/09/11 03:32:04;;;;;;;63.90;31.20;;;;;;;11.07;78.28;99807.89;115265;1205;139154;-65
2021/09/11 03:34:33;;;;;;;57.00;33.60;;;;;;;11.07;78.10;99806.97;115438;1208;22327;-66
2021/09/11 03:37:02;;;;;;;56.90;30.30;;;;;;;11.09;78.00;99805.67;115202;1201;138131;-65
2021/09/11 03:39:31;;;;;;;49.10;29.00;;;;;;;11.09;78.12;99811.91;115450;1206;22333;-65
2021/09/11 03:42:00;;;;;;;61.30;31.80;;;;;;;11.08;77.93;99810.46;115383;1208;22167;-65
2021/09/11 03:44:28;;;;;;;60.90;31.90;;;;;;;11.09;77.93;99813.65;115282;1201;139138;-63
2021/09/11 03:46:56;;;;;;;61.90;32.10;;;;;;;11.10;78.13;99814.31;115438;1206;23027;-64
2021/09/11 03:49:24;;;;;;;53.30;30.00;;;;;;;11.12;78.29;99813.61;115245;1208;138489;-64
2021/09/11 03:51:52;;;;;;;51.70;29.30;;;;;;;11.14;78.17;99813.47;115355;1212;22349;-64
2021/09/11 03:54:20;;;;;;;55.90;30.60;;;;;;;11.15;78.17;99813.10;115313;1212;22226;-64
2021/09/11 03:56:48;;;;;;;61.50;29.70;;;;;;;11.17;78.17;99813.77;115198;1205;138589;-64
2021/09/11 03:59:16;;;;;;;64.40;30.90;;;;;;;11.18;78.43;99810.36;115450;1207;22282;-64
2021/09/11 04:01:48;;;;;;;60.20;30.60;;;;;;;11.21;78.48;99806.52;115210;1202;138488;-64
2021/09/11 04:04:16;;;;;;;59.30;30.40;;;;;;;11.25;78.48;99808.70;115400;1207;22363;-64
2021/09/11 04:06:50;;;;;;;58.90;28.60;;;;;;;11.30;78.94;99807.94;115264;1205;138505;-64
2021/09/11 04:09:18;;;;;;;60.30;30.80;;;;;;;11.38;79.01;99808.80;115274;1207;22332;-64
2021/09/11 04:11:46;;;;;;;55.30;28.40;;;;;;;11.46;79.09;99810.89;115404;1208;23034;-64
2021/09/11 04:14:14;;;;;;;76.20;31.80;;;;;;;11.53;79.03;99810.64;115196;1205;138961;-64
2021/09/11 04:16:53;;;;;;;76.00;32.40;;;;;;;11.62;79.22;99816.25;115333;1213;22253;-64
2021/09/11 04:19:23;;;;;;;65.00;30.90;;;;;;;11.70;79.35;99815.02;115292;1206;137960;-65
2021/09/11 04:21:51;;;;;;;71.40;31.90;;;;;;;11.79;79.46;99820.65;115383;1208;22318;-65
2021/09/11 04:24:20;;;;;;;63.90;30.40;;;;;;;11.87;79.69;99821.91;115291;1208;22294;-65
2021/09/11 04:26:48;;;;;;;57.80;29.60;;;;;;;11.95;79.65;99822.87;115363;1201;138955;-64
2021/09/11 04:29:16;;;;;;;60.30;32.40;;;;;;;12.05;79.62;99816.34;115399;1206;22343;-64
2021/09/11 04:31:46;;;;;;;69.30;31.00;;;;;;;12.16;80.06;99820.05;115312;1202;138366;-65
2021/09/11 04:34:14;;;;;;;66.10;31.80;;;;;;;12.34;80.40;99821.65;115408;1206;22324;-65
2021/09/11 04:36:42;;;;;;;70.50;32.60;;;;;;;12.57;80.29;99818.86;115208;1202;138774;-64
2021/09/11 04:39:10;;;;;;;77.00;33.60;;;;;;;12.79;80.13;99819.70;115463;1205;22395;-65
2021/09/11 04:41:38;;;;;;;75.10;33.70;;;;;;;13.05;79.93;99820.11;115412;1205;22107;-65
2021/09/11 04:44:06;;;;;;;77.80;36.10;;;;;;;13.40;79.67;99822.02;115314;1205;137794;-65
2021/09/11 04:46:54;;;;;;;98.60;39.30;;;;;;;13.79;78.91;99812.80;115487;1207;22825;-66
2021/09/11 04:49:22;;;;;;;114.10;38.70;;;;;;;14.12;77.98;99809.48;115279;1205;138043;-66
2021/09/11 04:51:50;;;;;;;119.30;39.40;;;;;;;14.37;77.09;99809.15;115418;1205;22469;-66
2021/09/11 04:54:18;;;;;;;110.10;39.10;;;;;;;14.57;76.25;99809.35;115396;1205;22122;-66
2021/09/11 04:56:47;;;;;;;104.80;39.20;;;;;;;14.74;75.69;99809.75;115246;1201;138385;-66
2021/09/11 04:59:15;;;;;;;99.00;40.90;;;;;;;14.89;75.02;99806.19;115444;1206;22327;-66
2021/09/11 05:01:43;;;;;;;98.90;40.20;;;;;;;15.02;74.58;99804.57;115232;1202;137855;-66
2021/09/11 05:04:11;;;;;;;100.40;39.20;;;;;;;15.13;74.34;99806.66;115403;1213;22239;-67
2021/09/11 05:06:39;;;;;;;83.50;35.00;;;;;;;15.24;74.04;99806.51;115373;1201;139297;-66
2021/09/11 05:09:08;;;;;;;95.60;37.90;;;;;;;15.35;73.66;99807.42;115418;1205;22329;-67
2021/09/11 05:11:38;;;;;;;112.80;37.50;;;;;;;15.46;73.40;99802.54;115445;1205;22238;-67
2021/09/11 05:14:06;;;;;;;78.20;35.20;;;;;;;15.55;73.09;99798.51;115321;1202;139602;-66
2021/09/11 05:16:37;;;;;;;69.80;33.80;;;;;;;15.71;72.66;99803.95;115330;1208;23193;-66
2021/09/11 05:19:06;;;;;;;72.90;34.90;;;;;;;15.86;72.39;99801.27;115355;1203;138023;-66
2021/09/11 05:21:54;;;;;;;77.90;35.20;;;;;;;16.04;71.85;99799.59;115443;1205;22329;-66
2021/09/11 05:24:22;;;;;;;70.80;32.60;;;;;;;16.20;71.40;99796.60;115434;1213;22310;-66
2021/09/11 05:27:05;;;;;;;54.90;28.80;;;;;;;16.37;70.67;99798.38;115438;1201;137977;-65
2021/09/11 05:29:42;;;;;;;59.90;29.80;;;;;;;16.51;69.84;99796.92;115555;1205;23152;-66
2021/09/11 05:32:12;;;;;;;64.40;30.30;;;;;;;16.65;69.43;99797.23;115433;1200;138394;-64
2021/09/11 05:34:40;;;;;;;70.40;33.90;;;;;;;16.75;69.30;99797.85;115593;1205;22282;-65
2021/09/11 05:37:08;;;;;;;74.90;33.60;;;;;;;16.85;69.14;99797.48;115404;1202;137740;-65
2021/09/11 05:39:38;;;;;;;62.60;27.50;;;;;;;16.94;68.70;99797.75;115562;1204;22464;-65
2021/09/11 05:42:07;;;;;;;63.30;30.20;;;;;;;17.02;68.08;99800.63;115572;1204;22346;-66
2021/09/11 05:44:35;;;;;;;61.50;28.20;;;;;;;17.10;67.93;99800.20;115416;1201;139029;-65
2021/09/11 05:47:03;;;;;;;55.60;26.50;;;;;;;17.19;67.74;99800.31;115629;1209;22365;-65
2021/09/11 05:49:31;;;;;;;51.70;27.10;;;;;;;17.26;67.30;99798.02;115454;1202;139115;-65
2021/09/11 05:51:59;;;;;;;47.10;26.60;;;;;;;17.34;67.28;99800.50;115573;1211;23479;-64
2021/09/11 05:54:28;;;;;;;51.70;23.60;;;;;;;17.44;67.48;99796.84;115595;1204;22347;-65
2021/09/11 05:56:56;;;;;;;44.70;25.10;;;;;;;17.55;66.84;99799.22;115403;1201;137513;-66
2021/09/11 05:59:24;;;;;;;49.90;26.50;;;;;;;17.65;66.52;99796.66;115639;1205;22231;-66
2021/09/11 06:01:52;;;;;;;63.60;28.50;;;;;;;17.74;66.31;99793.19;115383;1199;138269;-66
2021/09/11 06:04:20;;;;;;;54.00;28.10;;;;;;;17.82;66.25;99794.00;115516;1205;22358;-65
2021/09/11 06:06:48;;;;;;;56.90;26.70;;;;;;;17.90;66.71;99792.59;115483;1200;137794;-65
2021/09/11 06:09:16;;;;;;;38.10;23.20;;;;;;;17.99;66.54;99792.52;115566;1205;22304;-66
2021/09/11 06:11:50;;;;;;;49.00;25.60;;;;;;;18.07;65.81;99794.10;115587;1204;22207;-66
2021/09/11 06:14:18;;;;;;;44.10;24.80;;;;;;;18.15;65.56;99797.73;115481;1201;138893;-65
2021/09/11 06:16:46;;;;;;;56.30;24.30;;;;;;;18.22;65.52;99797.48;115551;1204;23100;-66
2021/09/11 06:19:14;;;;;;;46.70;21.50;;;;;;;18.30;65.64;99800.83;115485;1201;137991;-66
2021/09/11 06:21:42;;;;;;;49.00;22.70;;;;;;;18.40;65.46;99797.56;115451;1205;22281;-66
2021/09/11 06:24:10;;;;;;;44.10;19.80;;;;;;;18.50;65.18;99796.33;115547;1205;22367;-65
2021/09/11 06:26:38;;;;;;;40.80;18.60;;;;;;;18.60;64.72;99797.95;115493;1199;138018;-66
2021/09/11 06:29:07;;;;;;;30.30;17.40;;;;;;;18.70;63.73;99799.91;115469;1206;23022;-66
2021/09/11 06:31:36;;;;;;;35.10;19.10;;;;;;;18.82;63.17;99798.53;115451;1201;137979;-65
2021/09/11 06:34:04;;;;;;;27.10;16.20;;;;;;;18.93;62.88;99793.73;115480;1204;22238;-65
2021/09/11 06:36:32;;;;;;;28.10;16.30;;;;;;;19.02;62.53;99792.94;115488;1203;22334;-65
2021/09/11 06:39:00;;;;;;;30.10;15.90;;;;;;;19.10;61.97;99793.33;115434;1202;137214;-65
2021/09/11 06:41:29;;;;;;;28.60;15.30;;;;;;;19.18;61.66;99793.60;115445;1204;22228;-65
2021/09/11 06:43:57;;;;;;;31.40;15.20;;;;;;;19.24;61.48;99794.12;115470;1199;137421;-65
2021/09/11 06:46:29;;;;;;;19.20;11.10;;;;;;;19.32;61.50;99792.10;115501;1204;23329;-66
2021/09/11 06:48:58;;;;;;;16.00;10.80;;;;;;;19.40;60.39;99795.11;115371;1201;138728;-65
2021/09/11 06:51:26;;;;;;;34.40;12.70;;;;;;;19.50;59.91;99799.45;115545;1205;22211;-65
2021/09/11 06:53:58;;;;;;;19.30;10.20;;;;;;;19.61;59.07;99800.92;115461;1205;22321;-65
2021/09/11 06:56:27;;;;;;;17.80;11.40;;;;;;;19.69;58.58;99804.06;115400;1199;137302;-66
2021/09/11 06:58:55;;;;;;;16.20;10.80;;;;;;;19.75;58.28;99807.73;115518;1210;22794;-65
2021/09/11 07:01:23;;;;;;;15.50;9.10;;;;;;;19.80;58.12;99809.06;115410;1201;137950;-66
2021/09/11 07:03:52;;;;;;;16.30;9.00;;;;;;;19.84;57.19;99808.59;115510;1204;22328;-65
2021/09/11 07:06:20;;;;;;;21.00;11.90;;;;;;;19.88;56.43;99808.40;113436;1204;22602;-65
2021/09/11 07:08:49;;;;;;;23.90;14.00;;;;;;;19.91;57.14;99806.70;115354;1200;137717;-65
2021/09/11 07:11:37;;;;;;;16.90;10.80;;;;;;;19.95;57.13;99804.28;115545;1204;22362;-65
2021/09/11 07:14:05;;;;;;;14.50;10.40;;;;;;;19.97;56.69;99799.14;115437;1199;137258;-65
2021/09/11 07:16:47;;;;;;;48.00;18.10;;;;;;;19.99;56.73;99795.21;115463;1204;22236;-65
2021/09/11 07:19:15;;;;;;;61.40;21.80;;;;;;;20.01;57.19;99794.84;115350;1201;137727;-67
2021/09/11 07:21:43;;;;;;;51.20;18.50;;;;;;;20.07;56.84;99797.61;115534;1210;22361;-66
2021/09/11 07:24:13;;;;;;;35.20;15.70;;;;;;;20.13;57.20;99797.37;115534;1204;22334;-66
2021/09/11 07:26:41;;;;;;;38.30;17.30;;;;;;;20.20;57.01;99797.16;115337;1202;137733;-66
2021/09/11 07:29:09;;;;;;;41.40;16.40;;;;;;;20.25;56.84;99793.31;115356;1205;22365;-66
2021/09/11 07:31:38;;;;;;;31.80;16.40;;;;;;;20.32;56.68;99793.92;115363;1201;138549;-66
2021/09/11 07:34:06;;;;;;;30.20;15.60;;;;;;;20.39;57.06;99796.08;115480;1205;22379;-66
2021/09/11 07:36:38;;;;;;;19.70;13.40;;;;;;;20.47;57.55;99794.89;115513;1205;22340;-66
2021/09/11 07:39:07;;;;;;;24.60;15.00;;;;;;;20.54;56.87;99796.13;115346;1200;137200;-65
2021/09/11 07:41:35;;;;;;;17.10;12.70;;;;;;;20.59;56.50;99795.58;115426;1205;22351;-66
2021/09/11 07:44:03;;;;;;;18.80;13.50;;;;;;;20.61;56.72;99792.73;115412;1201;137494;-66
2021/09/11 07:46:32;;;;;;;22.80;13.30;;;;;;;20.64;56.82;99795.29;115491;1207;22374;-66
2021/09/11 07:49:02;;;;;;;30.30;13.70;;;;;;;20.67;56.32;99792.90;115321;1201;138414;-66
2021/09/11 07:51:30;;;;;;;25.20;16.50;;;;;;;20.71;56.12;99796.88;115511;1210;22318;-66
2021/09/11 07:53:58;;;;;;;31.80;14.50;;;;;;;20.76;55.90;99795.08;115492;1204;22390;-66
2021/09/11 07:56:26;;;;;;;25.70;13.70;;;;;;;20.84;55.70;99796.80;115335;1202;138250;-67
2021/09/11 07:58:55;;;;;;;18.80;12.70;;;;;;;20.95;55.47;99801.05;115493;1211;22353;-67
2021/09/11 08:01:23;;;;;;;23.20;15.60;;;;;;;21.02;55.50;99800.46;115440;1200;138805;-66
2021/09/11 08:03:52;;;;;;;23.00;13.40;;;;;;;21.06;54.32;99796.44;115591;1204;23136;-67
2021/09/11 08:06:20;;;;;;;30.60;15.40;;;;;;;21.06;54.73;99793.63;115497;1204;22782;-67
2021/09/11 08:08:50;;;;;;;27.70;15.60;;;;;;;21.08;54.39;99789.90;115381;1199;138870;-67
2021/09/11 08:11:18;;;;;;;23.90;14.60;;;;;;;21.12;54.59;99792.51;115626;1204;23295;-68
2021/09/11 08:13:46;;;;;;;24.90;13.30;;;;;;;21.16;53.71;99784.31;115434;1199;138878;-66
2021/09/11 08:16:14;;;;;;;20.20;13.20;;;;;;;21.21;53.39;99789.14;115571;1204;22393;-66
2021/09/11 08:18:42;;;;;;;20.70;13.20;;;;;;;21.23;52.92;99787.40;115558;1203;22255;-66
2021/09/11 08:21:11;;;;;;;19.90;13.00;;;;;;;21.26;52.75;99786.05;115388;1201;138406;-66
2021/09/11 08:23:59;;;;;;;22.20;12.60;;;;;;;21.27;53.23;99783.35;115511;1204;22366;-67
2021/09/11 08:26:27;;;;;;;16.40;13.50;;;;;;;21.31;53.62;99787.57;115424;1199;137648;-67
2021/09/11 08:28:55;;;;;;;19.20;13.10;;;;;;;21.35;53.46;99784.05;115549;1204;23186;-67
2021/09/11 08:31:24;;;;;;;22.00;14.30;;;;;;;21.40;53.09;99781.67;115462;1201;137552;-67
2021/09/11 08:33:52;;;;;;;16.60;13.30;;;;;;;21.45;53.02;99782.94;115528;1204;22305;-67
2021/09/11 08:36:22;;;;;;;22.40;14.30;;;;;;;21.51;53.03;99780.69;115514;1204;22374;-67
2021/09/11 08:38:51;;;;;;;20.00;11.70;;;;;;;21.58;53.00;99781.98;115409;1199;137831;-67
2021/09/11 08:41:20;;;;;;;19.60;13.40;;;;;;;21.63;52.97;99775.95;115510;1204;22110;-67
2021/09/11 08:43:48;;;;;;;20.00;13.60;;;;;;;21.67;52.72;99775.31;115423;1201;139027;-67
2021/09/11 08:46:17;;;;;;;17.50;13.50;;;;;;;21.71;52.30;99777.41;113460;1204;22429;-67
2021/09/11 08:48:46;;;;;;;17.60;14.00;;;;;;;21.72;52.38;99771.05;115495;1204;23284;-66
2021/09/11 08:51:14;;;;;;;18.70;12.20;;;;;;;21.71;52.24;99768.40;115439;1200;138277;-65
2021/09/11 08:53:42;;;;;;;17.30;12.30;;;;;;;21.73;51.49;99769.58;115490;1204;22313;-63
2021/09/11 08:56:10;;;;;;;14.40;12.00;;;;;;;21.73;51.30;99768.42;115471;1201;137642;-63
2021/09/11 08:58:38;;;;;;;15.00;11.60;;;;;;;21.76;51.01;99769.83;115487;1204;22235;-64
2021/09/11 09:01:06;;;;;;;16.40;12.90;;;;;;;21.74;51.00;99766.71;115400;1201;138373;-63
2021/09/11 09:03:36;;;;;;;14.70;11.80;;;;;;;21.71;50.91;99769.91;115500;1204;22293;-64
2021/09/11 09:06:16;;;;;;;15.40;11.80;;;;;;;21.66;50.60;99768.33;115521;1206;24777;-64
2021/09/11 09:08:45;;;;;;;20.80;11.90;;;;;;;21.60;50.64;99765.23;115413;1199;137354;-64
2021/09/11 09:11:34;;;;;;;14.60;11.70;;;;;;;21.56;50.68;99762.85;115502;1204;22319;-64
2021/09/11 09:14:07;;;;;;;14.40;11.30;;;;;;;21.50;50.53;99759.09;115374;1201;138221;-64
2021/09/11 09:16:42;;;;;;;15.90;12.20;;;;;;;21.46;49.90;99761.05;115557;1204;22374;-64
2021/09/11 09:19:30;;;;;;;19.20;12.30;;;;;;;21.44;49.93;99758.73;115425;1199;138051;-64
2021/09/11 09:22:04;;;;;;;18.00;12.90;;;;;;;21.43;50.24;99754.75;115517;1211;22359;-64
2021/09/11 09:24:36;;;;;;;15.60;12.20;;;;;;;21.42;50.12;99752.41;115530;1204;23322;-64
2021/09/11 09:27:06;;;;;;;17.10;11.80;;;;;;;21.46;49.90;99749.19;115427;1199;137219;-66
2021/09/11 09:29:36;;;;;;;24.00;13.20;;;;;;;21.50;49.73;99751.34;115464;1211;22413;-63
2021/09/11 09:32:05;;;;;;;15.30;11.70;;;;;;;21.54;49.63;99752.92;115470;1201;137666;-63
2021/09/11 09:34:36;;;;;;;18.50;13.10;;;;;;;21.56;49.88;99750.80;115503;1204;22356;-64
2021/09/11 09:37:08;;;;;;;17.90;12.40;;;;;;;21.57;49.91;99748.08;115394;1199;137478;-63
2021/09/11 09:39:40;;;;;;;20.50;13.00;;;;;;;21.58;49.94;99747.76;115522;1204;22320;-64
2021/09/11 09:42:09;;;;;;;20.80;13.60;;;;;;;21.60;50.02;99748.70;115528;1204;22356;-63
2021/09/11 09:44:55;;;;;;;14.80;11.80;;;;;;;21.61;49.78;99747.73;115436;1199;137659;-63
2021/09/11 09:47:23;;;;;;;14.10;11.90;;;;;;;21.62;49.52;99748.75;115549;1204;22223;-63
2021/09/11 09:50:10;;;;;;;16.30;11.80;;;;;;;21.64;49.99;99748.16;115404;1199;138010;-64
2021/09/11 09:52:39;;;;;;;21.40;11.80;;;;;;;21.66;49.52;99744.88;115566;1204;22678;-64
2021/09/11 09:55:07;;;;;;;16.20;11.70;;;;;;;21.70;50.74;99745.14;115418;1199;138412;-63
2021/09/11 09:57:38;;;;;;;18.50;12.00;;;;;;;21.73;50.06;99740.26;115530;1204;22296;-64
2021/09/11 10:00:07;;;;;;;16.80;12.80;;;;;;;21.76;49.26;99737.81;115580;1204;22410;-64
2021/09/11 10:02:42;;;;;;;14.90;13.30;;;;;;;21.81;49.71;99738.18;115380;1199;137824;-64
2021/09/11 10:05:15;;;;;;;16.20;11.60;;;;;;;21.84;49.31;99732.44;115572;1199;22312;-64
2021/09/11 10:07:46;;;;;;;15.30;11.70;;;;;;;21.88;49.35;99733.86;115422;1200;137596;-64
2021/09/11 10:10:14;;;;;;;14.30;12.30;;;;;;;21.91;49.42;99729.99;115470;1204;22302;-64
2021/09/11 10:12:46;;;;;;;16.60;12.70;;;;;;;21.97;49.29;99729.52;115478;1204;22330;-64
2021/09/11 10:15:33;;;;;;;25.90;11.80;;;;;;;22.03;48.65;99724.95;115393;1201;137632;-64
2021/09/11 10:18:05;;;;;;;16.50;11.60;;;;;;;22.10;48.47;99725.58;115532;1204;22335;-64
2021/09/11 10:21:15;;;;;;;15.20;10.90;;;;;;;22.15;47.83;99724.10;115383;1201;137764;-64
2021/09/11 10:24:06;;;;;;;21.40;11.20;;;;;;;22.19;47.29;99722.89;115551;1211;22308;-64
2021/09/11 10:26:46;;;;;;;17.70;12.00;;;;;;;22.25;47.29;99725.52;112756;1201;137322;-55
2021/09/11 10:29:31;;;;;;;16.20;11.80;;;;;;;22.29;46.90;99721.85;111150;1205;23682;-55
2021/09/11 10:32:16;;;;;;;21.30;12.40;;;;;;;22.30;46.76;99715.94;115383;1201;137419;-55
2021/09/11 10:34:52;;;;;;;14.00;11.60;;;;;;;22.29;47.33;99705.42;115492;1207;22303;-55
2021/09/11 10:37:23;;;;;;;21.00;12.30;;;;;;;22.28;47.89;99703.17;115355;1201;138443;-55
2021/09/11 10:40:14;;;;;;;20.30;12.30;;;;;;;22.29;47.30;99704.15;115476;1205;22315;-55
2021/09/11 10:43:09;;;;;;;16.00;11.20;;;;;;;22.31;47.25;99699.09;115325;1201;137431;-55
2021/09/11 10:45:45;;;;;;;14.60;11.40;;;;;;;22.36;46.47;99696.15;115491;1204;22351;-55
2021/09/11 10:48:51;;;;;;;18.40;10.50;;;;;;;22.40;46.78;99695.06;115520;1204;22295;-55
2021/09/11 10:51:21;;;;;;;15.80;10.90;;;;;;;22.43;46.42;99690.12;115379;1197;137525;-55
2021/09/11 10:53:59;;;;;;;15.70;11.40;;;;;;;22.47;46.23;99690.67;115477;1208;22374;-57
2021/09/11 10:56:29;;;;;;;17.40;10.70;;;;;;;22.51;45.92;99692.11;115405;1202;137416;-56
2021/09/11 10:59:19;;;;;;;23.00;10.80;;;;;;;22.53;45.88;99687.04;115496;1204;22396;-56
2021/09/11 11:01:52;;;;;;;16.70;11.50;;;;;;;22.58;46.28;99687.86;115380;1199;137719;-57
2021/09/11 11:04:47;;;;;;;13.20;11.00;;;;;;;22.62;46.64;99684.40;115497;1204;22318;-57
2021/09/11 11:07:18;;;;;;;16.70;11.60;;;;;;;22.71;46.62;99681.23;115303;1200;137567;-56
2021/09/11 11:10:07;;;;;;;16.00;11.30;;;;;;;22.78;46.31;99680.00;115438;1204;22270;-56
2021/09/11 11:12:36;;;;;;;18.70;11.40;;;;;;;22.82;45.90;99678.42;115515;1205;22132;-56
2021/09/11 11:15:09;;;;;;;14.60;11.40;;;;;;;22.86;45.36;99675.38;115389;1199;137594;-57
2021/09/11 11:17:42;;;;;;;17.50;12.30;;;;;;;22.87;45.62;99673.38;115524;1204;22300;-57
2021/09/11 11:20:30;;;;;;;19.00;11.70;;;;;;;22.88;45.20;99666.05;115427;1201;139368;-56
2021/09/11 11:23:00;;;;;;;17.80;13.60;;;;;;;22.90;45.58;99665.74;115473;1208;22289;-56
2021/09/11 11:25:33;;;;;;;20.60;12.50;;;;;;;22.95;45.33;99663.58;115374;1199;137491;-56